createdAt,value
2018-07-25T00:00:13.245Z,23.68
2018-07-25T00:02:43.381Z,23.67
2018-07-25T00:05:14.732Z,23.67
2018-07-25T00:07:45.380Z,23.73
2018-07-25T00:10:15.691Z,23.80
2018-07-25T00:12:45.672Z,23.76
2018-07-25T00:15:15.821Z,23.65
2018-07-25T00:17:46.823Z,23.66
2018-07-25T00:20:16.908Z,23.67
2018-07-25T00:22:47.276Z,23.65
2018-07-25T00:25:17.534Z,23.64
2018-07-25T00:27:47.735Z,23.65
2018-07-25T00:30:18.551Z,23.61
2018-07-25T00:32:48.654Z,23.64
2018-07-25T00:35:18.781Z,23.63
2018-07-25T00:37:48.957Z,23.64
2018-07-25T00:40:19.329Z,23.61
2018-07-25T00:42:50.175Z,23.61
2018-07-25T00:45:21.014Z,23.62
2018-07-25T00:47:51.522Z,23.63
2018-07-25T00:50:21.696Z,23.61
2018-07-25T00:52:52.659Z,23.58
2018-07-25T00:55:22.772Z,23.52
2018-07-25T00:57:53.054Z,23.37
2018-07-25T01:00:23.641Z,23.27
2018-07-25T01:02:53.906Z,23.27
2018-07-25T01:05:24.230Z,23.26
2018-07-25T01:07:54.765Z,23.27
2018-07-25T01:10:25.198Z,23.28
2018-07-25T01:12:55.818Z,23.31
2018-07-25T01:15:26.269Z,23.33
2018-07-25T01:17:57.620Z,23.33
2018-07-25T01:20:28.435Z,23.36
2018-07-25T01:22:59.114Z,23.33
2018-07-25T01:25:29.781Z,23.24
2018-07-25T01:28:00.291Z,23.20
2018-07-25T01:30:30.346Z,23.12
2018-07-25T01:33:00.517Z,23.14
2018-07-25T01:35:30.639Z,23.06
2018-07-25T01:38:00.813Z,23.00
2018-07-25T01:40:30.937Z,22.95
2018-07-25T01:43:00.979Z,22.90
2018-07-25T01:45:31.042Z,22.95
2018-07-25T01:48:01.123Z,23.00
2018-07-25T01:50:31.154Z,23.11
2018-07-25T01:53:01.372Z,23.17
2018-07-25T01:55:31.698Z,23.15
2018-07-25T01:58:01.853Z,22.96
2018-07-25T02:00:31.976Z,22.86
2018-07-25T02:03:02.149Z,23.01
2018-07-25T02:05:32.371Z,23.09
2018-07-25T02:08:02.385Z,23.01
2018-07-25T02:10:36.082Z,22.86
2018-07-25T02:13:06.044Z,22.91
2018-07-25T02:15:36.635Z,22.92
2018-07-25T02:18:07.165Z,23.08
2018-07-25T02:20:37.517Z,23.22
2018-07-25T02:23:07.515Z,23.18
2018-07-25T02:25:37.622Z,22.94
2018-07-25T02:28:10.212Z,22.80
2018-07-25T02:30:40.457Z,22.76
2018-07-25T02:33:10.479Z,22.76
2018-07-25T02:35:40.564Z,22.67
2018-07-25T02:38:10.706Z,22.65
2018-07-25T02:40:40.901Z,22.65
2018-07-25T02:43:11.055Z,22.77
2018-07-25T02:45:46.366Z,22.83
2018-07-25T02:48:17.295Z,22.90
2018-07-25T02:50:47.122Z,22.93
2018-07-25T02:53:17.127Z,23.04
2018-07-25T02:55:47.140Z,23.15
2018-07-25T02:58:17.159Z,23.05
2018-07-25T03:00:48.300Z,22.89
2018-07-25T03:03:18.752Z,22.81
2018-07-25T03:05:48.876Z,22.69
2018-07-25T03:08:19.068Z,22.69
2018-07-25T03:10:53.790Z,22.74
2018-07-25T03:13:24.323Z,22.53
2018-07-25T03:16:04.275Z,22.51
2018-07-25T03:18:34.492Z,22.69
2018-07-25T03:21:04.928Z,22.82
2018-07-25T03:23:35.896Z,22.82
2018-07-25T03:26:05.977Z,22.81
2018-07-25T03:28:40.420Z,22.63
2018-07-25T03:31:10.427Z,22.70
2018-07-25T03:33:40.436Z,22.63
2018-07-25T03:36:10.413Z,22.62
2018-07-25T03:38:41.607Z,22.71
2018-07-25T03:41:11.827Z,22.87
2018-07-25T03:43:41.949Z,22.82
2018-07-25T03:46:13.369Z,22.94
2018-07-25T03:48:43.477Z,23.04
2018-07-25T03:51:13.572Z,22.93
2018-07-25T03:53:43.510Z,22.84
2018-07-25T03:56:13.543Z,22.68
2018-07-25T03:58:43.617Z,22.71
2018-07-25T04:01:17.933Z,22.72
2018-07-25T04:03:47.957Z,22.71
2018-07-25T04:06:19.553Z,22.74
2018-07-25T04:08:52.435Z,22.90
2018-07-25T04:11:24.126Z,22.90
2018-07-25T04:13:54.148Z,22.86
2018-07-25T04:16:23.838Z,22.84
2018-07-25T04:18:53.936Z,22.80
2018-07-25T04:21:27.025Z,22.82
2018-07-25T04:23:57.045Z,22.92
2018-07-25T04:26:27.061Z,23.02
2018-07-25T04:29:00.730Z,23.07
2018-07-25T04:31:31.552Z,23.04
2018-07-25T04:34:01.444Z,23.04
2018-07-25T04:36:32.680Z,23.04
2018-07-25T04:39:05.492Z,23.09
2018-07-25T04:41:38.255Z,23.12
2018-07-25T04:44:08.289Z,23.14
2018-07-25T04:46:41.650Z,23.14
2018-07-25T04:49:13.893Z,23.27
2018-07-25T04:51:51.258Z,23.29
2018-07-25T04:54:21.317Z,23.30
2018-07-25T04:56:52.351Z,23.32
2018-07-25T04:59:24.773Z,23.36
2018-07-25T05:01:54.934Z,23.39
2018-07-25T05:04:24.956Z,23.47
2018-07-25T05:06:54.993Z,23.42
2018-07-25T05:09:25.121Z,23.46
2018-07-25T05:11:55.288Z,23.57
2018-07-25T05:14:25.369Z,23.65
2018-07-25T05:16:58.270Z,23.77
2018-07-25T05:19:28.688Z,23.90
2018-07-25T05:21:58.808Z,24.00
2018-07-25T05:24:29.857Z,24.08
2018-07-25T05:26:59.441Z,24.11
2018-07-25T05:29:31.528Z,24.21
2018-07-25T05:32:05.327Z,24.22
2018-07-25T05:34:37.342Z,24.35
2018-07-25T05:37:10.228Z,24.40
2018-07-25T05:39:40.589Z,24.43
2018-07-25T05:42:11.221Z,24.58
2018-07-25T05:44:41.450Z,24.72
2018-07-25T05:47:13.111Z,24.85
2018-07-25T05:49:44.584Z,24.96
2018-07-25T05:52:14.720Z,25.03
2018-07-25T05:54:46.796Z,25.04
2018-07-25T05:57:17.481Z,25.12
2018-07-25T05:59:48.389Z,25.16
2018-07-25T06:02:19.538Z,25.24
2018-07-25T06:04:49.867Z,25.29
2018-07-25T06:07:19.815Z,25.30
2018-07-25T06:09:49.958Z,25.35
2018-07-25T06:12:20.192Z,25.36
2018-07-25T06:14:50.946Z,25.25
2018-07-25T06:17:21.269Z,25.30
2018-07-25T06:19:51.061Z,25.26
2018-07-25T06:22:21.310Z,25.26
2018-07-25T06:27:23.968Z,25.39
2018-07-25T06:29:54.234Z,25.49
2018-07-25T06:32:24.459Z,25.55
2018-07-25T06:34:54.863Z,25.71
2018-07-25T06:37:25.608Z,26.00
2018-07-25T06:39:55.643Z,26.45
2018-07-25T06:42:27.108Z,26.83
2018-07-25T06:44:57.353Z,27.25
2018-07-25T06:47:27.513Z,27.44
2018-07-25T06:50:01.320Z,27.67
2018-07-25T06:52:31.597Z,27.83
2018-07-25T06:55:10.232Z,27.98
2018-07-25T06:57:40.715Z,28.07
2018-07-25T07:00:18.463Z,28.13
2018-07-25T07:02:53.822Z,28.43
2018-07-25T07:05:27.982Z,29.01
2018-07-25T07:07:59.480Z,28.95
2018-07-25T07:10:33.979Z,29.23
2018-07-25T07:13:04.456Z,28.87
2018-07-25T07:15:34.610Z,28.81
2018-07-25T07:18:06.249Z,29.75
2018-07-25T07:20:37.649Z,29.77
2018-07-25T07:23:09.438Z,30.14
2018-07-25T07:25:43.401Z,31.35
2018-07-25T07:28:13.556Z,31.29
2018-07-25T07:33:20.451Z,30.23
2018-07-25T07:35:58.044Z,30.63
2018-07-25T07:38:30.351Z,31.15
2018-07-25T07:41:03.220Z,31.78
2018-07-25T07:43:36.171Z,32.26
2018-07-25T07:46:06.972Z,32.48
2018-07-25T07:48:40.197Z,33.05
2018-07-25T07:51:11.659Z,32.71
2018-07-25T07:53:44.428Z,33.24
2018-07-25T07:56:18.308Z,33.38
2018-07-25T07:58:49.663Z,33.70
2018-07-25T08:01:22.982Z,33.54
2018-07-25T08:03:55.357Z,32.25
2018-07-25T08:06:26.674Z,31.40
2018-07-25T08:08:57.594Z,32.53
2018-07-25T08:11:28.385Z,32.46
2018-07-25T08:14:07.274Z,32.22
2018-07-25T08:16:42.553Z,31.24
2018-07-25T08:19:15.850Z,31.65
2018-07-25T08:21:46.638Z,32.91
2018-07-25T08:24:18.203Z,31.85
2018-07-25T08:26:48.911Z,32.45
2018-07-25T08:29:20.218Z,32.60
2018-07-25T08:31:50.502Z,33.10
2018-07-25T08:34:22.810Z,32.98
2018-07-25T08:36:53.112Z,32.09
2018-07-25T08:39:23.476Z,31.29
2018-07-25T08:41:54.307Z,31.34
2018-07-25T08:44:24.516Z,31.14
2018-07-25T08:46:58.684Z,31.13
2018-07-25T08:49:28.849Z,30.64
2018-07-25T08:51:59.065Z,30.60
2018-07-25T08:54:31.680Z,30.40
2018-07-25T08:57:01.706Z,30.80
2018-07-25T08:59:32.148Z,30.60
2018-07-25T09:02:03.154Z,30.82
2018-07-25T09:04:35.635Z,30.79
2018-07-25T09:07:09.458Z,31.06
2018-07-25T09:09:40.659Z,30.95
2018-07-25T09:12:15.863Z,30.83
2018-07-25T09:14:46.880Z,30.55
2018-07-25T09:17:17.623Z,30.66
2018-07-25T09:19:48.524Z,30.32
2018-07-25T09:22:20.444Z,30.61
2018-07-25T09:24:51.809Z,30.68
2018-07-25T09:27:23.328Z,30.52
2018-07-25T09:29:54.762Z,30.56
2018-07-25T09:32:26.598Z,30.26
2018-07-25T09:34:58.554Z,30.19
2018-07-25T09:37:31.069Z,30.13
2018-07-25T09:40:03.710Z,30.60
2018-07-25T09:42:34.924Z,30.43
2018-07-25T09:45:08.269Z,30.57
2018-07-25T09:47:39.426Z,30.39
2018-07-25T09:50:10.520Z,30.42
2018-07-25T09:52:41.903Z,30.53
2018-07-25T09:55:12.457Z,30.45
2018-07-25T09:57:42.878Z,30.32
2018-07-25T10:00:14.451Z,30.35
2018-07-25T10:02:45.358Z,30.44
2018-07-25T10:05:15.544Z,30.54
2018-07-25T10:07:46.830Z,30.49
2018-07-25T10:10:19.145Z,30.48
2018-07-25T10:12:52.938Z,30.34
2018-07-25T10:15:23.363Z,30.55
2018-07-25T10:17:54.075Z,30.50
2018-07-25T10:20:24.348Z,30.45
2018-07-25T10:22:55.061Z,30.51
2018-07-25T10:25:25.356Z,30.38
2018-07-25T10:27:55.550Z,30.32
2018-07-25T10:30:25.819Z,30.39
2018-07-25T10:32:56.196Z,30.57
2018-07-25T10:35:27.034Z,30.39
2018-07-25T10:37:57.193Z,30.05
2018-07-25T10:40:28.849Z,30.21
2018-07-25T10:42:58.882Z,30.22
2018-07-25T10:45:29.102Z,30.23
2018-07-25T10:47:59.268Z,30.25
2018-07-25T10:50:30.767Z,30.26
2018-07-25T10:53:01.912Z,30.05
2018-07-25T10:55:35.048Z,29.92
2018-07-25T10:58:05.205Z,30.08
2018-07-25T11:00:37.808Z,30.04
2018-07-25T11:03:08.332Z,30.08
2018-07-25T11:05:38.456Z,29.93
2018-07-25T11:08:08.504Z,29.91
2018-07-25T11:10:39.149Z,29.74
2018-07-25T11:13:09.883Z,29.72
2018-07-25T11:15:41.092Z,29.59
2018-07-25T11:18:13.129Z,29.66
2018-07-25T11:20:43.835Z,29.53
2018-07-25T11:23:17.024Z,29.70
2018-07-25T11:25:47.247Z,29.77
2018-07-25T11:28:17.519Z,29.86
2018-07-25T11:30:47.831Z,29.77
2018-07-25T11:33:18.831Z,29.62
2018-07-25T11:35:49.234Z,29.73
2018-07-25T11:38:19.405Z,29.74
2018-07-25T11:40:49.631Z,29.67
2018-07-25T11:43:22.263Z,29.80
2018-07-25T11:45:52.723Z,29.78
2018-07-25T11:48:25.714Z,29.67
2018-07-25T11:50:57.641Z,29.62
2018-07-25T11:53:28.072Z,29.36
2018-07-25T11:55:58.423Z,29.20
2018-07-25T11:58:34.641Z,29.37
2018-07-25T12:01:06.249Z,29.39
2018-07-25T12:03:37.027Z,29.39
2018-07-25T12:06:07.921Z,29.44
2018-07-25T12:08:40.959Z,29.47
2018-07-25T12:11:12.940Z,29.47
2018-07-25T12:13:43.263Z,29.42
2018-07-25T12:16:14.311Z,29.48
2018-07-25T12:18:48.708Z,29.58
2018-07-25T12:21:20.829Z,29.38
2018-07-25T12:23:50.861Z,29.49
2018-07-25T12:26:29.331Z,29.64
2018-07-25T12:29:00.524Z,29.44
2018-07-25T12:31:34.925Z,29.49
2018-07-25T12:34:08.386Z,29.48
2018-07-25T12:36:38.990Z,29.59
2018-07-25T12:39:10.746Z,29.75
2018-07-25T12:41:41.055Z,29.65
2018-07-25T12:44:11.289Z,29.78
2018-07-25T12:46:41.817Z,29.89
2018-07-25T12:49:12.396Z,29.68
2018-07-25T12:51:44.196Z,29.64
2018-07-25T12:54:15.872Z,29.72
2018-07-25T12:56:46.695Z,29.65
2018-07-25T12:59:18.043Z,29.60
2018-07-25T13:01:48.855Z,29.63
2018-07-25T13:04:19.367Z,29.60
2018-07-25T13:06:49.896Z,29.51
2018-07-25T13:09:20.346Z,29.53
2018-07-25T13:11:51.006Z,29.65
2018-07-25T13:14:21.991Z,29.48
2018-07-25T13:16:54.980Z,29.52
2018-07-25T13:19:27.827Z,29.55
2018-07-25T13:21:58.029Z,29.68
2018-07-25T13:24:28.688Z,29.67
2018-07-25T13:26:59.504Z,29.67
2018-07-25T13:29:31.755Z,29.71
2018-07-25T13:32:02.875Z,29.78
2018-07-25T13:34:35.919Z,29.88
2018-07-25T13:37:06.465Z,29.80
2018-07-25T13:39:36.448Z,29.74
2018-07-25T13:42:07.192Z,29.82
2018-07-25T13:44:37.370Z,29.88
2018-07-25T13:47:07.684Z,30.01
2018-07-25T13:49:37.826Z,30.12
2018-07-25T13:52:09.421Z,30.07
2018-07-25T13:54:41.745Z,30.01
2018-07-25T13:57:13.960Z,29.78
2018-07-25T13:59:43.807Z,29.84
2018-07-25T14:02:15.716Z,29.66
2018-07-25T14:04:51.649Z,29.75
2018-07-25T14:07:22.033Z,29.70
2018-07-25T14:09:52.753Z,29.66
2018-07-25T14:12:24.799Z,29.57
2018-07-25T14:14:55.955Z,29.47
2018-07-25T14:17:25.875Z,29.46
2018-07-25T14:19:55.707Z,29.42
2018-07-25T14:22:26.294Z,29.36
2018-07-25T14:24:56.715Z,29.35
2018-07-25T14:27:26.515Z,29.40
2018-07-25T14:29:57.653Z,29.27
2018-07-25T14:32:27.750Z,29.21
2018-07-25T14:34:57.890Z,29.24
2018-07-25T14:37:27.841Z,29.37
2018-07-25T14:39:57.822Z,29.48
2018-07-25T14:42:28.902Z,29.14
2018-07-25T14:45:02.818Z,28.70
2018-07-25T14:47:34.743Z,28.45
2018-07-25T14:50:05.843Z,28.18
2018-07-25T14:52:36.294Z,27.98
2018-07-25T14:55:07.845Z,28.14
2018-07-25T14:57:38.096Z,27.86
2018-07-25T15:00:09.012Z,27.86
2018-07-25T15:02:39.279Z,27.84
2018-07-25T15:05:09.751Z,27.87
2018-07-25T15:07:39.877Z,27.80
2018-07-25T15:10:10.632Z,27.83
2018-07-25T15:12:42.463Z,27.66
2018-07-25T15:15:13.024Z,27.78
2018-07-25T15:17:43.776Z,27.96
2018-07-25T15:20:15.013Z,27.99
2018-07-25T15:22:49.512Z,28.07
2018-07-25T15:25:22.324Z,28.12
2018-07-25T15:27:55.710Z,27.94
2018-07-25T15:30:26.016Z,28.02
2018-07-25T15:33:00.017Z,28.02
2018-07-25T15:35:30.127Z,27.77
2018-07-25T15:38:02.354Z,27.82
2018-07-25T15:40:32.524Z,27.88
2018-07-25T15:43:02.910Z,27.79
2018-07-25T15:45:32.774Z,27.67
2018-07-25T15:48:02.847Z,27.74
2018-07-25T15:50:33.000Z,27.70
2018-07-25T15:53:03.179Z,27.64
2018-07-25T15:55:34.817Z,27.36
2018-07-25T15:58:05.365Z,27.22
2018-07-25T16:00:35.621Z,27.10
2018-07-25T16:03:05.798Z,26.83
2018-07-25T16:05:36.304Z,26.54
2018-07-25T16:08:06.668Z,26.41
2018-07-25T16:10:37.961Z,26.23
2018-07-25T16:13:08.612Z,26.00
2018-07-25T16:15:39.089Z,26.04
2018-07-25T16:18:09.453Z,25.90
2018-07-25T16:20:39.738Z,25.78
2018-07-25T16:23:10.074Z,25.77
2018-07-25T16:25:41.774Z,25.60
2018-07-25T16:28:15.232Z,25.61
2018-07-25T16:30:45.705Z,25.58
2018-07-25T16:33:19.925Z,25.53
2018-07-25T16:35:51.833Z,25.51
2018-07-25T16:38:23.907Z,25.48
2018-07-25T16:40:54.439Z,25.55
2018-07-25T16:43:24.826Z,25.55
2018-07-25T16:45:55.164Z,25.48
2018-07-25T16:48:29.619Z,25.52
2018-07-25T16:51:00.009Z,25.54
2018-07-25T16:53:33.020Z,25.58
2018-07-25T16:56:08.643Z,25.62
2018-07-25T16:58:39.298Z,25.59
2018-07-25T17:01:11.424Z,25.55
2018-07-25T17:03:44.669Z,25.59
2018-07-25T17:06:24.289Z,25.54
2018-07-25T17:08:55.984Z,25.56
2018-07-25T17:11:28.256Z,25.63
2018-07-25T17:14:01.884Z,25.66
2018-07-25T17:16:32.459Z,25.67
2018-07-25T17:19:05.964Z,25.70
2018-07-25T17:21:36.724Z,25.78
2018-07-25T17:24:07.569Z,25.94
2018-07-25T17:26:41.800Z,26.10
2018-07-25T17:29:12.087Z,26.15
2018-07-25T17:31:44.351Z,26.18
2018-07-25T17:34:19.614Z,26.29
2018-07-25T17:36:50.518Z,26.45
2018-07-25T17:39:22.176Z,26.65
2018-07-25T17:41:53.214Z,26.64
2018-07-25T17:44:24.792Z,26.73
2018-07-25T17:46:55.876Z,26.78
2018-07-25T17:49:26.661Z,26.85
2018-07-25T17:52:00.939Z,26.93
2018-07-25T17:54:32.224Z,26.77
2018-07-25T17:57:03.229Z,26.66
2018-07-25T17:59:33.901Z,26.75
2018-07-25T18:02:06.223Z,26.81
2018-07-25T18:04:37.932Z,26.77
2018-07-25T18:07:09.491Z,26.84
2018-07-25T18:09:40.112Z,26.83
2018-07-25T18:12:12.180Z,26.91
2018-07-25T18:14:42.067Z,26.91
2018-07-25T18:17:13.154Z,26.87
2018-07-25T18:19:43.776Z,26.92
2018-07-25T18:22:14.497Z,26.95
2018-07-25T18:24:45.013Z,27.00
2018-07-25T18:27:15.939Z,26.97
2018-07-25T18:29:47.493Z,26.97
2018-07-25T18:32:18.125Z,26.94
2018-07-25T18:34:48.617Z,26.99
2018-07-25T18:37:19.948Z,27.02
2018-07-25T18:39:50.774Z,26.99
2018-07-25T18:42:21.921Z,26.97
2018-07-25T18:44:53.051Z,27.04
2018-07-25T18:47:23.316Z,27.06
2018-07-25T18:49:53.311Z,27.12
2018-07-25T18:52:23.604Z,27.14
2018-07-25T18:54:54.556Z,27.10
2018-07-25T18:57:24.637Z,27.11
2018-07-25T18:59:54.970Z,27.13
2018-07-25T19:02:25.182Z,27.21
2018-07-25T19:04:55.205Z,27.11
2018-07-25T19:07:25.478Z,27.09
2018-07-25T19:09:56.256Z,27.11
2018-07-25T19:12:26.433Z,27.12
2018-07-25T19:15:01.677Z,27.22
2018-07-25T19:17:32.145Z,27.25
2018-07-25T19:20:02.645Z,27.14
2018-07-25T19:22:32.889Z,27.02
2018-07-25T19:25:03.626Z,26.94
2018-07-25T19:27:33.937Z,26.88
2018-07-25T19:30:04.564Z,26.73
2018-07-25T19:32:35.730Z,26.72
2018-07-25T19:35:08.518Z,26.61
2018-07-25T19:37:38.686Z,26.63
2018-07-25T19:40:08.857Z,26.58
2018-07-25T19:42:38.982Z,26.51
2018-07-25T19:45:09.922Z,26.46
2018-07-25T19:47:40.837Z,26.47
2018-07-25T19:50:11.776Z,26.41
2018-07-25T19:52:42.573Z,26.44
2018-07-25T19:55:13.360Z,26.47
2018-07-25T19:57:43.529Z,26.50
2018-07-25T20:00:16.550Z,26.49
2018-07-25T20:02:44.444Z,26.43
2018-07-25T20:05:17.821Z,26.31
2018-07-25T20:07:47.996Z,26.22
2018-07-25T20:10:21.990Z,26.22
2018-07-25T20:12:52.871Z,26.22
2018-07-25T20:15:27.828Z,26.20
2018-07-25T20:17:58.309Z,26.14
2018-07-25T20:20:28.650Z,26.14
2018-07-25T20:23:01.169Z,26.18
2018-07-25T20:25:32.820Z,26.13
2018-07-25T20:28:03.057Z,26.04
2018-07-25T20:30:33.153Z,25.93
2018-07-25T20:33:03.220Z,25.87
2018-07-25T20:35:33.429Z,25.90
2018-07-25T20:38:03.728Z,25.85
2018-07-25T20:40:33.905Z,25.86
2018-07-25T20:43:04.381Z,25.81
2018-07-25T20:45:34.501Z,25.74
2018-07-25T20:48:04.860Z,25.73
2018-07-25T20:50:35.253Z,25.71
2018-07-25T20:53:06.747Z,25.66
2018-07-25T20:55:36.995Z,25.62
2018-07-25T20:58:07.078Z,25.65
2018-07-25T21:00:37.676Z,25.63
2018-07-25T21:03:08.661Z,25.59
2018-07-25T21:05:39.315Z,25.57
2018-07-25T21:08:09.752Z,25.47
2018-07-25T21:10:40.514Z,25.42
2018-07-25T21:13:11.790Z,25.37
2018-07-25T21:15:43.993Z,25.24
2018-07-25T21:18:14.440Z,25.29
2018-07-25T21:20:46.905Z,25.26
2018-07-25T21:23:18.166Z,25.31
2018-07-25T21:25:49.112Z,25.20
2018-07-25T21:28:19.510Z,25.16
2018-07-25T21:30:50.266Z,25.15
2018-07-25T21:33:21.699Z,25.29
2018-07-25T21:35:51.796Z,25.28
2018-07-25T21:38:23.536Z,25.14
2018-07-25T21:40:55.087Z,25.08
2018-07-25T21:43:25.691Z,24.96
2018-07-25T21:45:56.437Z,24.94
2018-07-25T21:48:30.199Z,24.90
2018-07-25T21:51:05.268Z,24.87
2018-07-25T21:53:37.170Z,24.82
2018-07-25T21:56:09.942Z,24.87
2018-07-25T21:58:40.366Z,24.92
2018-07-25T22:01:18.001Z,24.80
2018-07-25T22:03:49.317Z,24.67
2018-07-25T22:06:19.984Z,24.66
2018-07-25T22:08:51.055Z,24.69
2018-07-25T22:11:21.826Z,24.71
2018-07-25T22:13:57.205Z,24.77
2018-07-25T22:16:28.203Z,24.75
2018-07-25T22:19:04.002Z,24.74
2018-07-25T22:21:34.460Z,24.71
2018-07-25T22:24:04.575Z,24.69
2018-07-25T22:26:35.525Z,24.73
2018-07-25T22:29:05.664Z,24.83
2018-07-25T22:31:36.176Z,24.81
2018-07-25T22:34:09.227Z,24.68
2018-07-25T22:36:39.255Z,24.77
2018-07-25T22:39:10.913Z,24.84
2018-07-25T22:41:41.039Z,24.85
2018-07-25T22:44:11.135Z,24.75
2018-07-25T22:46:41.155Z,24.69
2018-07-25T22:49:48.123Z,24.66
2018-07-25T22:52:18.199Z,24.55
2018-07-25T22:54:50.409Z,24.46
2018-07-25T22:57:20.374Z,24.48
2018-07-25T22:59:51.324Z,24.46
2018-07-25T23:02:21.736Z,24.36
2018-07-25T23:04:51.931Z,24.34
2018-07-25T23:07:21.952Z,24.37
2018-07-25T23:09:51.856Z,24.41
2018-07-25T23:12:23.153Z,24.38
2018-07-25T23:14:53.221Z,24.52
2018-07-25T23:17:23.512Z,24.38
2018-07-25T23:19:53.577Z,24.28
2018-07-25T23:22:23.679Z,24.10
2018-07-25T23:24:53.922Z,23.99
2018-07-25T23:27:24.024Z,23.85
2018-07-25T23:29:53.884Z,23.95
2018-07-25T23:32:24.125Z,24.06
2018-07-25T23:34:54.035Z,24.05
2018-07-25T23:37:24.085Z,24.09
2018-07-25T23:39:54.272Z,24.26
2018-07-25T23:42:24.283Z,24.33
2018-07-25T23:44:54.420Z,24.33
2018-07-25T23:47:24.571Z,24.39
2018-07-25T23:49:54.580Z,24.40
2018-07-25T23:52:24.685Z,24.54
2018-07-25T23:54:54.769Z,24.58
2018-07-25T23:57:24.976Z,24.50
2018-07-25T23:59:55.170Z,24.41
